Time;durP1;ratioP1;P1;durP2;ratioP2;P2;SDS_P1;SDS_P2;PMS_P1;PMS_P2;Temp;Humidity;BMP_temperature;BMP_pressure;BME280_temperature;BME280_humidity;BME280_pressure;Samples;Min_cycle;Max_cycle;Signal;HPM_P1;HPM_P2
2021/05/29 00:00:18;;;;;;;11.10;8.90;;;11.30;99.90;;;;;;5088537;28;20257;-66
2021/05/29 00:02:45;;;;;;;9.27;8.38;;;11.30;99.90;;;;;;5045107;28;20364;-67
2021/05/29 00:05:13;;;;;;;8.02;7.28;;;11.30;99.90;;;;;;5055585;28;20217;-67
2021/05/29 00:07:40;;;;;;;9.30;8.38;;;11.30;99.90;;;;;;5049739;28;20304;-68
2021/05/29 00:10:08;;;;;;;10.35;8.32;;;11.30;99.90;;;;;;5061473;28;20552;-66
2021/05/29 00:12:35;;;;;;;9.80;8.80;;;11.20;99.90;;;;;;5056374;28;20301;-66
2021/05/29 00:15:03;;;;;;;12.18;10.23;;;11.20;99.90;;;;;;5060935;28;20510;-66
2021/05/29 00:17:30;;;;;;;16.13;10.57;;;11.20;99.90;;;;;;5060745;28;20570;-67
2021/05/29 00:19:57;;;;;;;11.73;9.05;;;11.20;99.90;;;;;;5060646;28;20214;-66
2021/05/29 00:22:24;;;;;;;10.48;9.57;;;11.10;99.90;;;;;;5059253;28;20256;-66
2021/05/29 00:24:51;;;;;;;12.65;9.80;;;11.10;99.90;;;;;;5060403;28;20205;-67
2021/05/29 00:27:18;;;;;;;10.55;9.50;;;11.10;99.90;;;;;;5060352;28;20586;-66
2021/05/29 00:29:45;;;;;;;10.35;8.77;;;11.10;99.90;;;;;;5059266;28;20244;-67
2021/05/29 00:32:12;;;;;;;8.88;7.97;;;11.10;99.90;;;;;;5059744;28;20256;-67
2021/05/29 00:34:40;;;;;;;11.10;9.52;;;11.10;99.90;;;;;;5057540;28;20472;-68
2021/05/29 00:37:07;;;;;;;14.07;9.20;;;11.10;99.90;;;;;;5092886;28;20207;-66
2021/05/29 00:39:35;;;;;;;8.77;7.97;;;11.20;99.90;;;;;;5058540;28;20502;-67
2021/05/29 00:42:02;;;;;;;8.70;7.90;;;11.30;99.90;;;;;;5058023;28;20243;-67
2021/05/29 00:45:06;;;;;;;9.80;7.93;;;11.20;99.90;;;;;;5061158;28;20268;-66
2021/05/29 00:47:33;;;;;;;12.18;9.30;;;11.10;99.90;;;;;;5035277;28;20477;-66
2021/05/29 00:50:04;;;;;;;9.68;8.32;;;11.00;99.90;;;;;;5053633;28;20340;-66
2021/05/29 00:52:34;;;;;;;8.60;7.78;;;11.00;99.90;;;;;;5060881;28;20304;-67
2021/05/29 00:55:06;;;;;;;7.88;7.15;;;11.00;99.90;;;;;;5056871;28;20237;-67
2021/05/29 00:57:33;;;;;;;7.55;6.85;;;11.00;99.90;;;;;;5061378;28;20207;-67
2021/05/29 01:00:01;;;;;;;8.25;7.13;;;10.90;99.90;;;;;;5059719;28;20240;-66
2021/05/29 01:02:29;;;;;;;12.90;9.02;;;10.90;99.90;;;;;;5054988;28;20210;-67
2021/05/29 01:04:56;;;;;;;8.88;7.95;;;10.90;99.90;;;;;;5059976;28;20425;-67
2021/05/29 01:07:23;;;;;;;11.02;9.20;;;10.80;99.90;;;;;;5053965;28;20238;-66
2021/05/29 01:09:50;;;;;;;12.95;9.13;;;10.80;99.90;;;;;;5059298;28;20689;-68
2021/05/29 01:12:18;;;;;;;16.13;10.38;;;10.70;99.90;;;;;;5053617;28;20207;-67
2021/05/29 01:14:53;;;;;;;11.77;10.57;;;10.70;99.90;;;;;;5060324;28;20248;-67
2021/05/29 01:17:22;;;;;;;10.15;8.45;;;10.70;99.90;;;;;;5059434;28;20210;-67
2021/05/29 01:19:49;;;;;;;13.55;8.48;;;10.70;99.90;;;;;;5059333;28;20432;-67
2021/05/29 01:22:42;;;;;;;9.00;6.70;;;10.80;99.90;;;;;;5058458;28;20210;-67
2021/05/29 01:25:16;;;;;;;7.20;6.50;;;10.70;99.90;;;;;;5051352;28;20388;-67
2021/05/29 01:27:44;;;;;;;7.82;7.07;;;10.70;99.90;;;;;;5057936;28;20248;-67
2021/05/29 01:30:13;;;;;;;12.80;7.53;;;10.70;99.90;;;;;;5059127;28;20272;-67
2021/05/29 01:32:41;;;;;;;8.73;6.30;;;10.60;99.90;;;;;;5046641;28;20210;-67
2021/05/29 01:35:12;;;;;;;7.97;5.68;;;10.50;99.90;;;;;;5059359;28;20865;-67
2021/05/29 01:37:39;;;;;;;7.60;6.80;;;10.40;99.90;;;;;;5057084;28;20432;-65
2021/05/29 01:40:07;;;;;;;7.82;6.90;;;10.40;99.90;;;;;;5058602;28;20574;-67
2021/05/29 01:42:37;;;;;;;6.55;5.93;;;10.30;99.90;;;;;;5050337;28;20254;-67
2021/05/29 01:45:07;;;;;;;10.00;8.07;;;10.40;99.90;;;;;;5043774;28;20206;-67
2021/05/29 01:47:42;;;;;;;9.35;6.72;;;10.20;99.90;;;;;;5050586;28;20264;-68
2021/05/29 01:50:13;;;;;;;7.63;6.80;;;10.30;99.90;;;;;;5056920;28;20209;-67
2021/05/29 01:53:06;;;;;;;13.38;7.05;;;10.30;99.90;;;;;;5059045;28;20213;-66
2021/05/29 01:55:33;;;;;;;7.25;6.40;;;10.20;99.90;;;;;;5052951;28;20520;-67
2021/05/29 01:58:02;;;;;;;8.07;6.20;;;10.20;99.90;;;;;;5071438;28;20460;-67
2021/05/29 02:00:29;;;;;;;7.70;6.65;;;10.20;99.90;;;;;;5044625;28;20263;-66
2021/05/29 02:02:57;;;;;;;12.75;8.30;;;10.10;99.90;;;;;;5057991;28;20561;-66
2021/05/29 02:05:29;;;;;;;8.98;6.68;;;10.00;99.90;;;;;;5058208;28;20213;-67
2021/05/29 02:08:05;;;;;;;9.65;7.25;;;10.10;99.90;;;;;;5058413;28;20231;-67
2021/05/29 02:10:34;;;;;;;11.15;7.68;;;10.20;99.90;;;;;;5057857;28;20381;-66
2021/05/29 02:13:04;;;;;;;9.70;8.70;;;10.20;99.90;;;;;;5058519;28;20210;-67
2021/05/29 02:15:37;;;;;;;9.95;8.88;;;10.20;99.90;;;;;;5058577;28;20519;-66
2021/05/29 02:18:07;;;;;;;8.90;8.10;;;10.10;99.90;;;;;;5047941;28;20262;-67
2021/05/29 02:20:47;;;;;;;15.77;9.60;;;10.00;99.90;;;;;;5051338;28;20214;-67
2021/05/29 02:23:20;;;;;;;10.88;9.90;;;10.00;99.90;;;;;;5058111;28;20205;-67
2021/05/29 02:25:49;;;;;;;10.88;9.75;;;10.00;99.90;;;;;;5070360;28;20250;-67
2021/05/29 02:28:18;;;;;;;9.70;8.75;;;9.90;99.90;;;;;;5057002;28;20782;-67
2021/05/29 02:30:46;;;;;;;12.43;8.57;;;10.00;99.90;;;;;;5057090;28;20210;-67
2021/05/29 02:33:13;;;;;;;10.30;9.27;;;10.00;99.90;;;;;;5058440;28;20493;-67
2021/05/29 02:35:40;;;;;;;10.95;8.80;;;10.00;99.90;;;;;;5057653;28;20259;-66
2021/05/29 02:38:07;;;;;;;11.23;10.20;;;10.00;99.90;;;;;;5057553;28;20231;-66
2021/05/29 02:40:35;;;;;;;10.90;9.70;;;10.10;99.90;;;;;;5049659;28;20209;-67
2021/05/29 02:43:02;;;;;;;9.48;8.52;;;10.00;99.90;;;;;;5051888;28;20236;-66
2021/05/29 02:45:29;;;;;;;10.20;9.25;;;10.00;99.90;;;;;;5045114;28;20212;-66
2021/05/29 02:47:56;;;;;;;12.30;10.10;;;10.00;99.90;;;;;;5057711;28;20236;-67
2021/05/29 02:50:24;;;;;;;10.52;9.35;;;10.10;99.90;;;;;;5058185;28;20281;-68
2021/05/29 02:52:52;;;;;;;11.40;10.30;;;10.10;99.90;;;;;;5057237;28;20205;-66
2021/05/29 02:55:23;;;;;;;14.35;11.32;;;10.00;99.90;;;;;;5056886;28;20236;-66
2021/05/29 02:57:54;;;;;;;12.77;10.75;;;10.00;99.90;;;;;;5057301;28;20254;-67
2021/05/29 03:00:27;;;;;;;15.07;11.50;;;9.80;99.90;;;;;;5055280;28;20261;-67
2021/05/29 03:02:55;;;;;;;13.85;12.43;;;9.90;99.90;;;;;;5050989;28;20521;-67
2021/05/29 03:05:23;;;;;;;12.88;11.68;;;9.80;99.90;;;;;;5046277;28;20435;-66
2021/05/29 03:07:51;;;;;;;14.35;11.70;;;9.90;99.90;;;;;;5047646;28;20270;-67
2021/05/29 03:10:21;;;;;;;11.30;9.90;;;9.80;99.90;;;;;;5058187;28;20209;-66
2021/05/29 03:12:53;;;;;;;12.93;10.35;;;9.80;99.90;;;;;;5056998;28;20247;-67
2021/05/29 03:15:25;;;;;;;11.60;10.40;;;9.90;99.90;;;;;;5056712;28;20205;-67
2021/05/29 03:17:54;;;;;;;13.05;11.15;;;9.90;99.90;;;;;;5056247;28;20216;-66
2021/05/29 03:20:24;;;;;;;12.55;11.30;;;10.00;99.90;;;;;;5056296;28;20504;-68
2021/05/29 03:22:51;;;;;;;12.50;11.07;;;10.00;99.90;;;;;;5057778;28;20510;-65
2021/05/29 03:25:18;;;;;;;10.25;8.52;;;10.00;99.90;;;;;;5052381;28;20205;-66
2021/05/29 03:27:47;;;;;;;8.60;7.53;;;10.00;99.90;;;;;;5054313;28;20225;-67
2021/05/29 03:30:17;;;;;;;8.70;7.75;;;10.10;99.90;;;;;;5053280;28;20251;-66
2021/05/29 03:32:46;;;;;;;7.60;6.90;;;10.20;99.90;;;;;;5057875;28;20346;-67
2021/05/29 03:35:14;;;;;;;7.53;6.75;;;10.40;99.90;;;;;;5057539;28;20223;-66
2021/05/29 03:37:41;;;;;;;9.20;7.35;;;10.40;99.90;;;;;;5043777;28;20500;-66
2021/05/29 03:40:10;;;;;;;9.80;7.05;;;10.50;99.90;;;;;;5050478;28;20207;-66
2021/05/29 03:42:38;;;;;;;10.77;7.57;;;10.60;99.90;;;;;;5056980;28;20282;-66
2021/05/29 03:45:08;;;;;;;9.15;8.23;;;10.70;99.90;;;;;;5051016;28;20209;-67
2021/05/29 03:47:35;;;;;;;8.90;8.02;;;10.70;99.90;;;;;;5050174;28;20233;-67
2021/05/29 03:50:03;;;;;;;9.30;7.95;;;10.80;99.90;;;;;;5055669;28;20206;-66
2021/05/29 03:52:31;;;;;;;14.27;8.70;;;10.90;99.90;;;;;;5044337;28;20241;-67
2021/05/29 03:54:58;;;;;;;10.00;7.70;;;10.90;99.90;;;;;;5061275;28;20253;-66
2021/05/29 03:57:25;;;;;;;9.55;7.90;;;11.00;99.90;;;;;;5061080;28;20252;-66
2021/05/29 03:59:52;;;;;;;12.75;9.02;;;11.30;99.90;;;;;;5048319;28;20211;-67
2021/05/29 04:02:19;;;;;;;9.27;8.27;;;11.70;99.90;;;;;;5061697;28;20207;-66
2021/05/29 04:04:46;;;;;;;10.48;9.45;;;11.90;99.90;;;;;;5060021;28;20260;-68
2021/05/29 04:07:13;;;;;;;11.40;8.05;;;12.00;99.90;;;;;;5061882;28;20230;-66
2021/05/29 04:09:40;;;;;;;7.18;6.50;;;12.00;99.90;;;;;;5060379;28;20237;-66
2021/05/29 04:12:08;;;;;;;11.40;8.60;;;11.90;99.90;;;;;;5061453;28;20239;-67
2021/05/29 04:14:36;;;;;;;8.30;6.18;;;11.80;99.90;;;;;;5060727;28;20211;-68
2021/05/29 04:17:03;;;;;;;7.88;7.13;;;11.70;99.90;;;;;;5061082;28;20210;-66
2021/05/29 04:19:30;;;;;;;7.90;7.10;;;11.60;99.90;;;;;;5060837;28;20233;-66
2021/05/29 04:21:58;;;;;;;9.18;8.05;;;11.50;99.90;;;;;;5061031;28;20214;-68
2021/05/29 04:24:25;;;;;;;8.52;6.30;;;11.50;99.90;;;;;;5061120;28;20214;-67
2021/05/29 04:26:52;;;;;;;8.95;6.95;;;11.50;99.90;;;;;;5060324;28;20230;-66
2021/05/29 04:29:19;;;;;;;9.45;7.50;;;11.50;99.90;;;;;;5060889;28;20244;-67
2021/05/29 04:31:46;;;;;;;11.48;7.47;;;11.50;99.90;;;;;;5062324;28;20249;-67
2021/05/29 04:34:13;;;;;;;8.23;7.38;;;11.60;99.90;;;;;;5053266;28;20261;-67
2021/05/29 04:36:40;;;;;;;6.80;6.10;;;11.60;99.90;;;;;;5059914;28;20218;-66
2021/05/29 04:39:07;;;;;;;9.35;6.65;;;11.60;99.90;;;;;;5047953;28;20211;-68
2021/05/29 04:41:34;;;;;;;9.48;6.20;;;11.50;99.90;;;;;;5052107;28;20246;-67
2021/05/29 04:44:02;;;;;;;7.90;6.63;;;11.50;99.90;;;;;;5054904;28;20204;-67
2021/05/29 04:46:29;;;;;;;14.63;7.10;;;11.40;99.90;;;;;;5057596;28;20265;-66
2021/05/29 04:48:56;;;;;;;7.75;6.55;;;11.50;99.90;;;;;;5056785;28;20208;-66
2021/05/29 04:51:23;;;;;;;6.80;5.90;;;11.50;99.90;;;;;;5054976;28;20440;-68
2021/05/29 04:53:50;;;;;;;8.63;7.00;;;11.70;99.90;;;;;;5059171;28;20248;-66
2021/05/29 04:56:17;;;;;;;8.35;6.55;;;12.00;99.90;;;;;;5059937;28;20559;-67
2021/05/29 04:58:44;;;;;;;8.57;7.47;;;12.20;99.90;;;;;;5052069;28;20517;-67
2021/05/29 05:01:12;;;;;;;7.43;6.57;;;12.50;99.90;;;;;;5046816;28;20234;-67
2021/05/29 05:03:40;;;;;;;8.27;7.20;;;12.50;99.90;;;;;;5058820;28;20294;-67
2021/05/29 05:06:07;;;;;;;9.77;7.70;;;12.60;99.90;;;;;;5060106;28;20203;-68
2021/05/29 05:08:35;;;;;;;7.82;7.03;;;12.80;99.90;;;;;;5060741;28;20227;-67
2021/05/29 05:11:02;;;;;;;9.02;6.93;;;12.70;99.90;;;;;;5060287;28;20211;-67
2021/05/29 05:13:29;;;;;;;6.95;6.15;;;12.70;99.90;;;;;;5055452;28;20282;-66
2021/05/29 05:15:56;;;;;;;7.65;5.47;;;12.70;99.90;;;;;;5057746;28;20211;-67
2021/05/29 05:18:24;;;;;;;11.60;7.35;;;12.60;99.90;;;;;;5045607;28;20270;-67
2021/05/29 05:20:51;;;;;;;8.68;7.13;;;12.50;99.90;;;;;;5059373;28;20430;-66
2021/05/29 05:23:21;;;;;;;7.28;6.55;;;12.60;99.90;;;;;;5055961;28;20233;-67
2021/05/29 05:25:53;;;;;;;6.75;5.25;;;12.80;99.90;;;;;;5056301;28;20487;-67
2021/05/29 05:28:27;;;;;;;8.23;7.45;;;13.10;99.90;;;;;;5051155;28;20388;-68
2021/05/29 05:31:02;;;;;;;6.88;6.28;;;13.50;99.90;;;;;;5060379;28;20372;-68
2021/05/29 05:33:31;;;;;;;7.88;6.93;;;13.80;99.90;;;;;;5053038;28;20207;-68
2021/05/29 05:35:58;;;;;;;11.90;7.40;;;13.80;99.90;;;;;;5054307;28;20200;-66
2021/05/29 05:38:25;;;;;;;5.80;5.30;;;13.90;99.90;;;;;;5059632;28;20223;-68
2021/05/29 05:40:52;;;;;;;7.53;6.40;;;13.80;99.90;;;;;;5058476;28;20235;-67
2021/05/29 05:43:19;;;;;;;6.28;5.65;;;13.80;99.90;;;;;;5045091;28;20329;-67
2021/05/29 05:45:46;;;;;;;7.68;6.80;;;13.80;99.90;;;;;;5060039;28;20250;-67
2021/05/29 05:48:13;;;;;;;8.07;7.28;;;14.10;99.90;;;;;;5058154;28;20223;-68
2021/05/29 05:50:52;;;;;;;7.97;7.07;;;14.30;99.90;;;;;;5059575;28;20451;-67
2021/05/29 05:53:20;;;;;;;11.40;7.90;;;14.30;99.90;;;;;;5059012;28;20203;-67
2021/05/29 05:55:51;;;;;;;8.85;8.05;;;14.30;99.90;;;;;;5091349;28;20208;-67
2021/05/29 05:58:18;;;;;;;6.22;5.63;;;14.40;99.90;;;;;;5058432;28;20207;-67
2021/05/29 06:00:46;;;;;;;7.20;6.20;;;14.70;99.90;;;;;;5058570;28;20514;-67
2021/05/29 06:03:12;;;;;;;13.10;6.97;;;14.90;99.90;;;;;;5058710;28;20414;-67
2021/05/29 06:05:40;;;;;;;7.40;5.50;;;15.20;99.90;;;;;;5046405;28;20568;-68
2021/05/29 06:08:07;;;;;;;5.40;4.95;;;15.40;99.90;;;;;;5055222;28;20268;-66
2021/05/29 06:10:34;;;;;;;6.70;6.00;;;15.70;99.50;;;;;;5058542;28;20212;-69
2021/05/29 06:13:01;;;;;;;8.98;7.13;;;16.20;98.80;;;;;;5056784;28;20272;-67
2021/05/29 06:20:56;;;;;;;6.40;5.83;;;16.60;97.70;;;;;;5058390;28;20436;-67
2021/05/29 06:23:24;;;;;;;9.87;6.57;;;17.80;95.80;;;;;;5058452;28;20448;-68
2021/05/29 06:25:51;;;;;;;7.53;6.50;;;18.90;94.00;;;;;;5058076;28;20446;-68
2021/05/29 06:28:18;;;;;;;8.03;7.23;;;19.20;92.90;;;;;;5056709;28;20649;-67
2021/05/29 06:30:45;;;;;;;8.73;6.77;;;19.50;92.30;;;;;;5056747;28;20421;-68
2021/05/29 06:33:12;;;;;;;9.13;7.70;;;20.00;91.00;;;;;;5055429;28;20457;-68
2021/05/29 06:35:39;;;;;;;7.00;6.30;;;19.70;92.30;;;;;;5090140;28;20488;-67
2021/05/29 06:38:06;;;;;;;7.60;6.23;;;20.00;91.40;;;;;;5038785;28;20416;-66
2021/05/29 06:40:33;;;;;;;7.57;6.00;;;20.50;87.60;;;;;;5049321;28;20448;-68
2021/05/29 06:43:02;;;;;;;7.50;6.90;;;20.40;88.70;;;;;;5055506;28;20396;-69
2021/05/29 06:45:31;;;;;;;6.87;6.43;;;20.70;86.50;;;;;;5057775;28;20498;-68
2021/05/29 06:47:59;;;;;;;10.57;7.27;;;19.80;89.50;;;;;;5057666;28;20566;-68
2021/05/29 06:50:27;;;;;;;7.30;6.80;;;20.90;87.80;;;;;;5058341;28;20441;-67
2021/05/29 06:52:57;;;;;;;7.80;7.20;;;22.40;81.90;;;;;;5057861;28;20472;-69
2021/05/29 07:00:55;;;;;;;7.27;6.57;;;21.10;83.10;;;;;;5056972;28;20494;-68
2021/05/29 07:03:22;;;;;;;7.00;6.50;;;21.00;84.50;;;;;;5057454;28;20485;-70
2021/05/29 07:05:50;;;;;;;6.50;6.00;;;21.30;81.10;;;;;;5057588;28;20419;-69
2021/05/29 07:08:17;;;;;;;6.50;5.93;;;20.80;80.80;;;;;;5056967;28;20489;-68
2021/05/29 07:10:44;;;;;;;6.43;5.30;;;20.50;81.30;;;;;;5058459;28;20419;-67
2021/05/29 07:13:11;;;;;;;6.50;6.00;;;20.70;82.90;;;;;;5057445;28;20419;-68
2021/05/29 07:15:39;;;;;;;5.43;5.03;;;20.30;84.20;;;;;;5046456;28;20445;-71
2021/05/29 07:18:10;;;;;;;6.17;4.97;;;19.70;82.70;;;;;;5057394;28;20447;-70
2021/05/29 07:20:39;;;;;;;4.93;4.63;;;18.80;84.60;;;;;;5057372;28;20423;-68
2021/05/29 07:23:06;;;;;;;5.10;4.80;;;18.50;87.60;;;;;;5054289;28;20490;-68
2021/05/29 07:25:34;;;;;;;4.80;4.50;;;18.30;89.20;;;;;;5056795;28;20486;-69
2021/05/29 07:28:01;;;;;;;6.40;5.90;;;17.80;90.30;;;;;;5058059;28;20555;-70
2021/05/29 07:30:29;;;;;;;6.13;5.57;;;17.40;90.70;;;;;;5053555;28;20443;-68
2021/05/29 07:32:56;;;;;;;6.67;5.47;;;17.30;91.10;;;;;;5054374;28;20451;-70
2021/05/29 07:35:23;;;;;;;9.47;5.63;;;17.50;91.50;;;;;;5051049;28;20469;-69
2021/05/29 07:37:50;;;;;;;5.83;5.33;;;17.80;91.10;;;;;;5054429;28;20485;-69
2021/05/29 07:40:17;;;;;;;5.60;5.20;;;17.80;91.00;;;;;;5057164;28;20419;-71
2021/05/29 07:42:45;;;;;;;6.53;4.90;;;17.80;90.70;;;;;;5056851;28;20517;-70
2021/05/29 07:45:13;;;;;;;5.77;5.30;;;17.60;91.00;;;;;;5057300;28;20476;-70
2021/05/29 07:47:41;;;;;;;4.73;4.43;;;17.90;90.50;;;;;;5057300;28;20508;-72
2021/05/29 07:50:08;;;;;;;5.30;4.90;;;17.90;90.60;;;;;;5055550;28;20415;-71
2021/05/29 07:52:36;;;;;;;6.13;5.73;;;17.70;91.40;;;;;;5046767;28;20475;-68
2021/05/29 07:55:05;;;;;;;5.60;5.30;;;18.00;91.70;;;;;;5067496;28;20441;-69
2021/05/29 07:57:33;;;;;;;7.50;5.47;;;17.80;91.80;;;;;;5039358;28;20412;-67
2021/05/29 08:00:01;;;;;;;5.97;5.43;;;17.50;95.70;;;;;;5041718;28;20455;-68
2021/05/29 08:02:29;;;;;;;5.20;4.70;;;17.10;98.10;;;;;;5049044;28;20445;-71
2021/05/29 08:04:58;;;;;;;6.07;5.53;;;16.50;97.70;;;;;;5054160;28;20472;-70
2021/05/29 08:07:25;;;;;;;6.47;5.37;;;16.50;97.70;;;;;;5056168;28;20426;-69
2021/05/29 08:09:55;;;;;;;8.20;5.23;;;16.50;96.70;;;;;;5055014;28;20443;-69
2021/05/29 08:12:23;;;;;;;8.57;7.57;;;16.70;96.20;;;;;;5057015;28;20419;-70
2021/05/29 08:14:50;;;;;;;8.10;6.80;;;17.30;94.70;;;;;;5056715;28;20449;-69
2021/05/29 08:17:18;;;;;;;6.73;6.17;;;18.80;92.70;;;;;;5054740;28;20763;-68
2021/05/29 08:19:45;;;;;;;6.30;5.70;;;20.00;91.00;;;;;;5056849;28;20506;-69
2021/05/29 08:22:12;;;;;;;5.50;5.10;;;20.40;87.40;;;;;;5057450;28;20437;-70
2021/05/29 08:24:39;;;;;;;5.60;5.23;;;20.20;86.40;;;;;;5057032;28;20514;-70
2021/05/29 08:27:06;;;;;;;7.73;5.40;;;20.40;85.20;;;;;;5056764;28;20415;-70
2021/05/29 08:29:33;;;;;;;5.80;5.40;;;20.10;86.10;;;;;;5058600;28;20463;-70
2021/05/29 08:32:00;;;;;;;6.27;5.67;;;19.70;86.50;;;;;;5055868;28;20490;-70
2021/05/29 08:34:28;;;;;;;6.33;5.73;;;19.20;87.30;;;;;;5059223;28;20473;-69
2021/05/29 08:36:55;;;;;;;5.93;5.33;;;18.50;91.40;;;;;;5061578;28;20414;-71
2021/05/29 08:39:22;;;;;;;6.33;5.77;;;17.50;92.90;;;;;;5059598;28;20434;-70
2021/05/29 08:41:50;;;;;;;6.93;6.00;;;16.80;93.30;;;;;;5059221;28;20449;-70
2021/05/29 08:44:18;;;;;;;6.20;5.77;;;16.40;94.00;;;;;;5046591;28;20419;-71
2021/05/29 08:46:45;;;;;;;6.87;6.27;;;16.20;95.20;;;;;;5047812;28;20446;-70
2021/05/29 08:49:12;;;;;;;6.10;5.60;;;15.90;95.70;;;;;;5060461;28;20514;-70
2021/05/29 08:51:39;;;;;;;6.17;5.67;;;15.70;96.00;;;;;;5059534;28;20432;-69
2021/05/29 08:54:06;;;;;;;4.80;4.40;;;15.70;97.60;;;;;;5060180;28;20446;-72
2021/05/29 08:56:34;;;;;;;5.50;5.10;;;15.70;98.50;;;;;;5045665;28;20268;-69
2021/05/29 08:59:02;;;;;;;5.60;5.03;;;15.80;99.90;;;;;;5049525;28;20208;-70
2021/05/29 09:01:29;;;;;;;4.55;4.10;;;15.90;99.90;;;;;;5054187;28;20212;-69
2021/05/29 09:04:04;;;;;;;4.53;4.13;;;16.20;99.90;;;;;;5052193;28;20216;-68
2021/05/29 09:06:30;;;;;;;3.90;3.50;;;17.00;99.90;;;;;;5058372;28;20213;-69
2021/05/29 09:09:00;;;;;;;4.00;3.60;;;18.60;96.10;;;;;;5060158;28;20458;-69
2021/05/29 09:11:51;;;;;;;3.47;3.17;;;19.40;93.60;;;;;;5058892;28;20418;-70
2021/05/29 09:17:09;;;;;;;3.83;3.63;;;20.90;92.20;;;;;;5057751;28;20465;-68
2021/05/29 09:19:57;;;;;;;5.00;4.60;;;22.00;89.30;;;;;;5057417;28;20856;-70
2021/05/29 09:22:29;;;;;;;4.70;4.40;;;22.10;85.70;;;;;;5073744;28;20462;-71
2021/05/29 09:25:03;;;;;;;5.97;5.47;;;21.40;86.80;;;;;;5052083;28;20445;-72
2021/05/29 09:27:33;;;;;;;5.40;5.10;;;21.20;87.30;;;;;;5054667;28;20436;-72
2021/05/29 09:30:04;;;;;;;6.40;5.90;;;20.50;87.70;;;;;;5057808;28;20451;-71
2021/05/29 09:32:36;;;;;;;6.53;6.00;;;20.00;88.90;;;;;;5058508;28;20440;-70
2021/05/29 09:35:07;;;;;;;6.13;5.67;;;19.40;90.60;;;;;;5059320;28;20508;-71
2021/05/29 09:37:35;;;;;;;6.10;5.70;;;19.60;90.90;;;;;;5047163;28;20442;-72
2021/05/29 09:40:09;;;;;;;7.80;5.47;;;19.70;90.10;;;;;;5054734;28;20439;-70
2021/05/29 09:42:41;;;;;;;5.60;5.07;;;19.60;90.60;;;;;;5051305;28;20505;-70
2021/05/29 09:45:25;;;;;;;5.80;5.40;;;19.70;90.80;;;;;;5052840;28;20477;-71
2021/05/29 09:48:17;;;;;;;6.20;5.70;;;19.10;91.20;;;;;;5059371;28;20648;-71
2021/05/29 09:51:02;;;;;;;6.40;5.83;;;19.00;91.60;;;;;;5059220;28;20441;-70
2021/05/29 09:53:35;;;;;;;6.43;5.93;;;19.20;91.50;;;;;;5058166;28;20445;-72
2021/05/29 09:56:04;;;;;;;6.60;6.10;;;19.20;91.10;;;;;;5058294;28;20444;-73
2021/05/29 09:58:58;;;;;;;5.97;5.47;;;19.40;90.80;;;;;;5055952;28;20461;-70
2021/05/29 10:01:52;;;;;;;6.57;6.07;;;19.40;90.00;;;;;;5058569;28;20476;-70
2021/05/29 10:04:31;;;;;;;6.40;5.90;;;19.60;88.10;;;;;;5053495;28;20450;-71
2021/05/29 10:07:01;;;;;;;6.20;5.70;;;19.30;88.50;;;;;;5055017;28;20435;-70
2021/05/29 10:09:29;;;;;;;6.50;6.00;;;19.20;90.50;;;;;;5054832;28;20484;-71
2021/05/29 10:11:57;;;;;;;7.70;7.00;;;19.20;90.30;;;;;;5056446;28;20657;-71
2021/05/29 10:14:25;;;;;;;5.90;5.50;;;19.30;90.00;;;;;;5054792;28;20441;-71
2021/05/29 10:16:52;;;;;;;6.13;5.73;;;18.70;90.40;;;;;;5050458;28;20464;-71
2021/05/29 10:19:21;;;;;;;6.30;5.70;;;18.50;90.70;;;;;;5054438;28;20443;-70
2021/05/29 10:21:49;;;;;;;6.30;5.70;;;18.30;91.10;;;;;;5054250;28;20478;-70
2021/05/29 10:24:17;;;;;;;6.57;6.07;;;18.20;91.40;;;;;;5054664;28;20422;-71
2021/05/29 10:26:45;;;;;;;6.77;6.27;;;18.10;91.80;;;;;;5058051;28;21128;-71
2021/05/29 10:29:13;;;;;;;6.70;6.20;;;18.00;92.10;;;;;;5057542;28;20558;-72
2021/05/29 10:31:42;;;;;;;6.00;5.40;;;17.80;91.70;;;;;;5058203;28;20459;-71
2021/05/29 10:34:09;;;;;;;6.20;5.80;;;17.20;93.40;;;;;;5057699;28;20435;-68
2021/05/29 10:36:52;;;;;;;5.77;5.20;;;16.00;97.40;;;;;;5056982;28;20425;-67
2021/05/29 10:39:25;;;;;;;5.63;5.13;;;15.10;99.90;;;;;;5057490;28;20433;-68
2021/05/29 10:42:04;;;;;;;9.73;6.15;;;14.30;99.90;;;;;;5058296;28;20244;-67
2021/05/29 10:44:42;;;;;;;8.57;6.07;;;13.80;99.90;;;;;;5053118;28;20211;-65
2021/05/29 10:47:09;;;;;;;6.75;5.65;;;13.50;99.90;;;;;;5053519;28;20208;-64
2021/05/29 10:49:49;;;;;;;6.65;5.90;;;13.40;99.90;;;;;;5049347;28;20231;-66
2021/05/29 10:52:35;;;;;;;5.75;5.25;;;13.30;99.90;;;;;;5053506;28;20270;-63
2021/05/29 10:55:08;;;;;;;6.70;6.10;;;13.10;99.90;;;;;;5057971;28;20203;-63
2021/05/29 10:57:59;;;;;;;5.65;5.10;;;13.00;99.90;;;;;;5051829;28;20234;-66
2021/05/29 11:00:35;;;;;;;8.50;6.57;;;13.10;99.90;;;;;;5053820;28;20738;-65
2021/05/29 11:03:17;;;;;;;4.97;4.60;;;13.40;99.90;;;;;;5053837;28;20560;-66
2021/05/29 11:05:46;;;;;;;3.92;3.17;;;13.60;99.90;;;;;;5089933;28;20210;-62
2021/05/29 11:08:47;;;;;;;3.95;3.40;;;13.20;99.90;;;;;;5057180;28;20203;-66
2021/05/29 11:11:41;;;;;;;2.90;2.60;;;12.70;99.90;;;;;;5057199;28;20485;-67
2021/05/29 11:14:22;;;;;;;2.20;2.00;;;12.20;99.90;;;;;;5057964;28;20313;-70
2021/05/29 11:16:52;;;;;;;3.08;2.55;;;12.00;99.90;;;;;;5053735;28;20241;-68
2021/05/29 11:19:23;;;;;;;2.70;2.17;;;11.90;99.90;;;;;;5053920;28;20214;-68
2021/05/29 11:22:08;;;;;;;4.82;2.88;;;12.00;99.90;;;;;;5056155;28;20208;-71
2021/05/29 11:24:49;;;;;;;4.18;3.20;;;12.40;99.90;;;;;;5057906;28;20215;-71
2021/05/29 11:27:24;;;;;;;6.97;4.10;;;13.10;99.90;;;;;;5057897;28;20203;-69
2021/05/29 11:30:14;;;;;;;3.75;3.40;;;13.90;99.90;;;;;;5055390;28;20440;-68
2021/05/29 11:35:23;;;;;;;4.70;3.90;;;14.70;99.90;;;;;;5049495;28;20345;-69
2021/05/29 11:37:58;;;;;;;3.42;3.13;;;14.90;99.90;;;;;;5049656;28;20208;-69
2021/05/29 11:40:50;;;;;;;4.25;3.85;;;15.20;99.90;;;;;;5056609;28;20207;-72
2021/05/29 11:43:39;;;;;;;4.18;3.75;;;15.30;99.90;;;;;;5057438;28;20224;-69
2021/05/29 11:46:10;;;;;;;5.10;4.53;;;15.60;99.90;;;;;;5049422;28;20256;-69
2021/05/29 11:48:45;;;;;;;6.03;4.40;;;15.80;99.90;;;;;;5056067;28;20239;-71
2021/05/29 11:51:18;;;;;;;4.57;4.07;;;15.70;99.00;;;;;;5049478;28;20219;-69
2021/05/29 11:53:56;;;;;;;4.22;3.88;;;15.70;99.90;;;;;;5056139;28;20217;-71
2021/05/29 11:56:32;;;;;;;4.90;4.20;;;16.00;99.90;;;;;;5052154;28;20248;-72
2021/05/29 11:59:01;;;;;;;4.50;3.77;;;16.10;98.20;;;;;;5054317;28;20822;-72
2021/05/29 12:01:31;;;;;;;3.88;3.40;;;16.60;97.00;;;;;;5051513;28;20450;-71
2021/05/29 12:04:02;;;;;;;3.73;3.43;;;16.70;95.90;;;;;;5055743;28;20210;-71
2021/05/29 12:06:38;;;;;;;3.23;3.03;;;16.80;96.20;;;;;;5059864;28;20448;-71
2021/05/29 12:09:10;;;;;;;5.87;3.70;;;17.20;95.70;;;;;;5060741;28;20487;-70
2021/05/29 12:11:44;;;;;;;4.40;4.10;;;17.50;94.60;;;;;;5058633;28;20464;-70
2021/05/29 12:14:14;;;;;;;4.70;4.23;;;17.40;94.60;;;;;;5059218;28;20451;-70
2021/05/29 12:16:44;;;;;;;5.60;4.50;;;17.20;93.10;;;;;;5056769;28;20421;-69
2021/05/29 12:19:32;;;;;;;4.33;4.00;;;17.00;94.90;;;;;;5059249;28;20469;-69
2021/05/29 12:22:10;;;;;;;3.83;3.63;;;17.20;95.40;;;;;;5059923;28;20441;-69
2021/05/29 12:24:51;;;;;;;3.60;3.33;;;17.50;92.10;;;;;;5057072;28;20762;-69
2021/05/29 12:27:28;;;;;;;4.03;3.67;;;17.60;91.00;;;;;;5055274;28;20797;-68
2021/05/29 12:30:08;;;;;;;4.13;3.93;;;17.80;91.00;;;;;;5056580;28;20477;-70
2021/05/29 12:32:38;;;;;;;6.70;4.37;;;18.40;90.30;;;;;;5056378;28;21005;-70
2021/05/29 12:35:38;;;;;;;4.60;4.20;;;18.50;90.60;;;;;;5059670;28;20549;-68
2021/05/29 12:38:23;;;;;;;5.03;4.70;;;18.30;90.20;;;;;;5059351;28;20443;-69
2021/05/29 12:41:12;;;;;;;4.90;4.50;;;18.10;91.30;;;;;;5060683;28;20860;-68
2021/05/29 12:43:41;;;;;;;5.00;4.50;;;17.60;92.20;;;;;;5059109;28;20740;-70
2021/05/29 12:46:25;;;;;;;4.40;4.20;;;17.50;92.70;;;;;;5058611;28;20443;-71
2021/05/29 12:49:20;;;;;;;3.63;3.43;;;17.80;92.20;;;;;;5050709;28;20461;-70
2021/05/29 12:51:51;;;;;;;4.43;4.13;;;17.70;91.50;;;;;;5045197;28;20455;-68
2021/05/29 12:54:19;;;;;;;4.43;3.90;;;18.00;91.20;;;;;;5060089;28;20418;-69
2021/05/29 12:56:53;;;;;;;5.63;3.63;;;18.40;90.40;;;;;;5045700;28;20426;-70
2021/05/29 12:59:28;;;;;;;4.60;3.77;;;18.50;89.40;;;;;;5047123;28;20944;-70
2021/05/29 13:02:17;;;;;;;4.63;4.30;;;18.30;88.60;;;;;;5056798;28;20469;-71
2021/05/29 13:07:45;;;;;;;4.47;4.17;;;18.60;87.80;;;;;;5060900;28;20440;-68
2021/05/29 13:12:57;;;;;;;7.23;6.53;;;18.70;85.10;;;;;;5058999;28;20482;-69
2021/05/29 13:15:25;;;;;;;4.90;4.60;;;18.50;86.70;;;;;;5056027;28;20422;-71
2021/05/29 13:18:11;;;;;;;5.73;5.33;;;18.00;86.90;;;;;;5058001;28;20438;-69
2021/05/29 13:20:40;;;;;;;4.93;4.63;;;17.80;86.80;;;;;;5059939;28;20450;-71
2021/05/29 13:23:10;;;;;;;5.70;5.20;;;17.90;88.10;;;;;;5056801;28;20729;-68
2021/05/29 13:25:40;;;;;;;4.87;4.57;;;18.20;88.20;;;;;;5056973;28;20558;-68